Time;durP1;ratioP1;P1;durP2;ratioP2;P2;SDS_P1;SDS_P2;PMS_P1;PMS_P2;Temp;Humidity;BMP_temperature;BMP_pressure;BME280_temperature;BME280_humidity;BME280_pressure;Samples;Min_cycle;Max_cycle;Signal;HPM_P1;HPM_P2
2022/06/23 00:00:48;;;;;;;6.63;4.73;;;;;;;;;;5073583;28;20212;-29
2022/06/23 00:03:21;;;;;;;6.93;5.27;;;;;;;;;;5057840;28;20216;-29
2022/06/23 00:05:50;;;;;;;7.20;4.37;;;;;;;;;;5052825;28;20358;-29
2022/06/23 00:08:17;;;;;;;5.57;5.00;;;;;;;;;;5068417;28;20205;-31
2022/06/23 00:10:47;;;;;;;6.80;5.00;;;;;;;;;;5063729;28;20206;-28
2022/06/23 00:13:14;;;;;;;8.73;5.20;;;;;;;;;;5054654;28;20231;-33
2022/06/23 00:18:17;;;;;;;5.30;4.50;;;;;;;;;;5051274;28;20292;-36
2022/06/23 00:20:47;;;;;;;6.93;4.63;;;;;;;;;;5055797;28;20227;-33
2022/06/23 00:23:18;;;;;;;7.27;4.37;;;;;;;;;;5056820;28;20267;-40
2022/06/23 00:25:47;;;;;;;8.67;5.10;;;;;;;;;;5056381;28;20194;-37
2022/06/23 00:28:16;;;;;;;7.17;4.57;;;;;;;;;;5053596;28;20215;-33
2022/06/23 00:30:44;;;;;;;6.23;4.63;;;;;;;;;;5055987;28;20208;-34
2022/06/23 00:33:17;;;;;;;7.43;5.00;;;;;;;;;;5050016;28;20202;-36
2022/06/23 00:35:46;;;;;;;7.37;4.73;;;;;;;;;;5055070;28;20218;-35
2022/06/23 00:38:25;;;;;;;8.80;5.07;;;;;;;;;;5056087;28;20212;-34
2022/06/23 00:40:52;;;;;;;7.87;4.77;;;;;;;;;;5056265;28;20201;-33
2022/06/23 00:43:20;;;;;;;5.93;3.93;;;;;;;;;;5041131;28;20216;-34
2022/06/23 00:45:49;;;;;;;6.93;4.90;;;;;;;;;;5054204;28;20236;-35
2022/06/23 00:48:19;;;;;;;6.80;4.00;;;;;;;;;;5046450;28;20205;-37
2022/06/23 00:50:50;;;;;;;5.13;4.30;;;;;;;;;;5050519;28;20227;-39
2022/06/23 00:53:21;;;;;;;5.20;4.13;;;;;;;;;;5055475;28;20196;-37
2022/06/23 00:55:55;;;;;;;6.27;4.20;;;;;;;;;;5055083;28;20228;-33
2022/06/23 00:58:33;;;;;;;6.50;4.37;;;;;;;;;;5050362;28;20209;-39
2022/06/23 01:01:03;;;;;;;6.67;4.77;;;;;;;;;;5041924;28;20207;-37
2022/06/23 01:03:32;;;;;;;5.63;4.23;;;;;;;;;;5051113;28;20207;-36
2022/06/23 01:06:06;;;;;;;7.80;5.33;;;;;;;;;;5052982;28;20221;-34
2022/06/23 01:08:36;;;;;;;6.57;5.00;;;;;;;;;;5055062;28;20243;-32
2022/06/23 01:11:05;;;;;;;5.37;4.73;;;;;;;;;;5055763;28;20189;-39
2022/06/23 01:13:36;;;;;;;5.90;4.60;;;;;;;;;;5047708;28;20208;-39
2022/06/23 01:16:07;;;;;;;8.37;3.97;;;;;;;;;;5047495;28;20235;-34
2022/06/23 01:18:36;;;;;;;7.67;4.70;;;;;;;;;;5046613;28;20218;-36
2022/06/23 01:21:08;;;;;;;4.97;3.87;;;;;;;;;;5047726;28;20257;-29
2022/06/23 01:23:43;;;;;;;4.93;4.43;;;;;;;;;;5055212;28;20218;-34
2022/06/23 01:26:35;;;;;;;5.90;4.30;;;;;;;;;;5051015;28;20529;-40
2022/06/23 01:29:06;;;;;;;17.97;5.00;;;;;;;;;;5054424;28;20217;-32
2022/06/23 01:31:39;;;;;;;21.13;4.80;;;;;;;;;;5054592;28;20204;-39
2022/06/23 01:34:09;;;;;;;9.60;5.37;;;;;;;;;;5046666;28;20214;-33
2022/06/23 01:36:37;;;;;;;4.80;4.30;;;;;;;;;;5051789;28;20319;-33
2022/06/23 01:39:07;;;;;;;6.37;4.43;;;;;;;;;;5054868;28;20218;-38
2022/06/23 01:41:37;;;;;;;4.97;4.47;;;;;;;;;;5049232;28;20213;-33
2022/06/23 01:44:10;;;;;;;6.10;3.97;;;;;;;;;;5044167;28;20209;-35
2022/06/23 01:46:38;;;;;;;4.70;4.20;;;;;;;;;;5054418;28;20349;-33
2022/06/23 01:49:07;;;;;;;7.57;4.43;;;;;;;;;;5048641;28;20213;-36
2022/06/23 01:51:42;;;;;;;6.07;4.93;;;;;;;;;;5042879;28;20204;-37
2022/06/23 01:54:12;;;;;;;7.30;4.80;;;;;;;;;;5054532;28;20201;-38
2022/06/23 01:56:43;;;;;;;8.07;5.10;;;;;;;;;;5052573;28;20229;-35
2022/06/23 01:59:34;;;;;;;9.60;5.80;;;;;;;;;;5047612;28;20212;-35
2022/06/23 02:02:07;;;;;;;7.20;5.07;;;;;;;;;;5052293;28;20202;-35
2022/06/23 02:04:37;;;;;;;7.07;5.20;;;;;;;;;;5034533;28;20201;-37
2022/06/23 02:07:07;;;;;;;7.37;4.73;;;;;;;;;;5054390;28;20232;-32
2022/06/23 02:09:40;;;;;;;6.97;4.90;;;;;;;;;;5054615;28;20199;-33
2022/06/23 02:12:15;;;;;;;9.67;4.90;;;;;;;;;;5048352;28;20210;-37
2022/06/23 02:14:50;;;;;;;6.53;4.83;;;;;;;;;;5051594;28;20227;-40
2022/06/23 02:17:20;;;;;;;7.17;5.47;;;;;;;;;;5050417;28;20246;-37
2022/06/23 02:19:50;;;;;;;7.40;5.33;;;;;;;;;;5048187;28;20240;-33
2022/06/23 02:22:20;;;;;;;10.30;5.10;;;;;;;;;;5054077;28;20205;-35
2022/06/23 02:24:48;;;;;;;8.20;4.83;;;;;;;;;;5052446;28;20231;-38
2022/06/23 02:27:17;;;;;;;5.13;4.40;;;;;;;;;;5045530;28;20342;-38
2022/06/23 02:29:51;;;;;;;6.70;5.07;;;;;;;;;;5049619;28;20201;-35
2022/06/23 02:32:22;;;;;;;6.20;4.97;;;;;;;;;;5051798;28;20212;-36
2022/06/23 02:34:51;;;;;;;8.47;5.33;;;;;;;;;;5043484;28;20219;-35
2022/06/23 02:37:36;;;;;;;9.17;5.50;;;;;;;;;;5053680;28;20220;-39
2022/06/23 02:40:04;;;;;;;5.57;4.63;;;;;;;;;;5053606;28;20291;-32
2022/06/23 02:42:33;;;;;;;6.30;4.50;;;;;;;;;;5048602;28;20315;-37
2022/06/23 02:45:19;;;;;;;10.87;4.80;;;;;;;;;;5048014;28;20209;-37
2022/06/23 02:47:56;;;;;;;6.43;5.03;;;;;;;;;;5047154;28;20237;-34
2022/06/23 02:50:29;;;;;;;12.70;5.37;;;;;;;;;;5044587;28;20226;-38
2022/06/23 02:53:04;;;;;;;8.80;5.60;;;;;;;;;;5053027;28;20294;-36
2022/06/23 02:55:41;;;;;;;8.03;5.87;;;;;;;;;;5052683;28;20234;-37
2022/06/23 02:58:10;;;;;;;6.07;5.03;;;;;;;;;;5047507;28;20203;-37
2022/06/23 03:00:46;;;;;;;9.67;4.97;;;;;;;;;;5051312;28;20212;-33
2022/06/23 03:03:18;;;;;;;14.67;5.93;;;;;;;;;;5047663;28;20268;-33
2022/06/23 03:05:50;;;;;;;9.27;5.17;;;;;;;;;;5048178;28;20200;-35
2022/06/23 03:08:21;;;;;;;10.77;5.90;;;;;;;;;;5052881;28;20206;-35
2022/06/23 03:10:51;;;;;;;9.73;5.47;;;;;;;;;;5053202;28;20290;-36
2022/06/23 03:13:22;;;;;;;7.73;5.10;;;;;;;;;;5046965;28;20211;-35
2022/06/23 03:15:53;;;;;;;14.70;6.40;;;;;;;;;;5052493;28;20211;-32
2022/06/23 03:18:23;;;;;;;6.87;5.63;;;;;;;;;;5049524;28;20211;-40
2022/06/23 03:20:52;;;;;;;8.70;5.73;;;;;;;;;;5048486;28;20203;-32
2022/06/23 03:23:22;;;;;;;16.73;6.30;;;;;;;;;;5051974;28;20200;-39
2022/06/23 03:25:54;;;;;;;19.50;6.37;;;;;;;;;;5050895;28;20199;-37
2022/06/23 03:28:22;;;;;;;12.47;6.03;;;;;;;;;;5040858;28;20204;-31
2022/06/23 03:30:54;;;;;;;10.17;5.90;;;;;;;;;;5051453;28;20258;-34
2022/06/23 03:33:23;;;;;;;12.50;5.97;;;;;;;;;;5047522;28;20205;-34
2022/06/23 03:35:53;;;;;;;8.07;5.50;;;;;;;;;;5048672;28;20231;-29
2022/06/23 03:41:35;;;;;;;14.70;6.20;;;;;;;;;;5052974;28;20238;-31
2022/06/23 03:44:00;;;;;;;11.47;6.10;;;;;;;;;;5045453;28;20347;-36
2022/06/23 03:46:32;;;;;;;11.17;6.53;;;;;;;;;;5052693;28;20230;-31
2022/06/23 03:49:03;;;;;;;11.57;6.93;;;;;;;;;;5041177;28;20559;-35
2022/06/23 03:51:32;;;;;;;15.33;6.70;;;;;;;;;;5052608;28;20193;-36
2022/06/23 03:54:02;;;;;;;14.20;7.00;;;;;;;;;;5052318;28;20236;-33
2022/06/23 03:56:32;;;;;;;12.40;7.37;;;;;;;;;;5041960;28;20228;-32
2022/06/23 03:59:03;;;;;;;22.03;7.20;;;;;;;;;;5044223;28;20203;-34
2022/06/23 04:01:34;;;;;;;7.67;5.70;;;;;;;;;;5052357;28;20209;-35
2022/06/23 04:04:03;;;;;;;9.57;5.40;;;;;;;;;;5046598;28;20212;-38
2022/06/23 04:06:35;;;;;;;7.00;5.17;;;;;;;;;;5045647;28;20229;-34
2022/06/23 04:09:11;;;;;;;18.97;5.63;;;;;;;;;;5050801;28;20212;-34
2022/06/23 04:11:57;;;;;;;12.30;5.87;;;;;;;;;;5043106;28;20212;-35
2022/06/23 04:14:30;;;;;;;15.33;7.23;;;;;;;;;;5051689;28;20203;-36
2022/06/23 04:17:06;;;;;;;12.03;5.47;;;;;;;;;;5049844;28;20321;-36
2022/06/23 04:19:33;;;;;;;10.13;5.93;;;;;;;;;;5048668;28;20290;-31
2022/06/23 04:22:03;;;;;;;18.23;5.23;;;;;;;;;;5052172;28;20204;-31
2022/06/23 04:24:30;;;;;;;10.90;5.10;;;;;;;;;;5052319;28;20203;-34
2022/06/23 04:26:59;;;;;;;5.77;4.97;;;;;;;;;;5049747;28;20224;-36
2022/06/23 04:29:28;;;;;;;12.33;5.00;;;;;;;;;;5039049;28;20209;-31
2022/06/23 04:31:57;;;;;;;10.30;5.03;;;;;;;;;;5042761;28;20195;-33
2022/06/23 04:34:27;;;;;;;8.20;5.60;;;;;;;;;;5039290;28;20292;-35
2022/06/23 04:36:54;;;;;;;10.20;5.53;;;;;;;;;;5054542;28;20215;-38
2022/06/23 04:39:25;;;;;;;7.83;6.40;;;;;;;;;;5056081;28;20266;-27
2022/06/23 04:41:55;;;;;;;10.47;6.40;;;;;;;;;;5047905;28;20237;-36
2022/06/23 04:44:24;;;;;;;7.57;5.77;;;;;;;;;;5055693;28;20200;-37
2022/06/23 04:46:52;;;;;;;7.67;5.83;;;;;;;;;;5055382;28;20231;-36
2022/06/23 04:49:22;;;;;;;10.37;5.50;;;;;;;;;;5039521;28;20518;-34
2022/06/23 04:51:52;;;;;;;7.50;5.40;;;;;;;;;;5054101;28;20207;-29
2022/06/23 04:54:21;;;;;;;6.13;5.53;;;;;;;;;;5055481;28;20205;-33
2022/06/23 04:56:51;;;;;;;11.37;5.93;;;;;;;;;;5044346;28;20233;-30
2022/06/23 04:59:25;;;;;;;13.17;5.97;;;;;;;;;;5044490;28;20222;-34
2022/06/23 05:01:53;;;;;;;8.17;5.77;;;;;;;;;;5055436;28;20197;-35
2022/06/23 05:04:23;;;;;;;6.40;5.47;;;;;;;;;;5048639;28;20209;-36
2022/06/23 05:06:54;;;;;;;7.30;5.73;;;;;;;;;;5054944;28;20230;-35
2022/06/23 05:09:23;;;;;;;6.90;5.93;;;;;;;;;;5055593;28;20200;-36
2022/06/23 05:11:52;;;;;;;7.60;5.70;;;;;;;;;;5055319;28;20234;-36
2022/06/23 05:14:23;;;;;;;9.53;6.33;;;;;;;;;;5043153;28;20212;-36
2022/06/23 05:16:52;;;;;;;9.70;7.30;;;;;;;;;;5051445;28;20224;-39
2022/06/23 05:19:22;;;;;;;8.23;6.23;;;;;;;;;;5042400;28;20230;-38
2022/06/23 05:21:51;;;;;;;12.63;5.63;;;;;;;;;;5053900;28;20237;-36
2022/06/23 05:24:21;;;;;;;9.00;6.47;;;;;;;;;;5055092;28;20203;-34
2022/06/23 05:26:51;;;;;;;12.73;6.20;;;;;;;;;;5041685;28;20232;-31
2022/06/23 05:29:20;;;;;;;7.40;5.90;;;;;;;;;;5055751;28;20290;-39
2022/06/23 05:31:48;;;;;;;10.70;6.27;;;;;;;;;;5055132;28;20218;-34
2022/06/23 05:34:18;;;;;;;7.47;6.10;;;;;;;;;;5047622;28;20218;-31
2022/06/23 05:36:49;;;;;;;9.27;6.17;;;;;;;;;;5054127;28;20227;-31
2022/06/23 05:39:20;;;;;;;14.30;7.13;;;;;;;;;;5053842;28;20219;-38
2022/06/23 05:41:52;;;;;;;12.50;6.73;;;;;;;;;;5049091;28;20208;-38
2022/06/23 05:44:21;;;;;;;9.10;7.13;;;;;;;;;;5048998;28;20207;-32
2022/06/23 05:46:50;;;;;;;9.63;6.87;;;;;;;;;;5054248;28;20221;-35
2022/06/23 05:49:18;;;;;;;10.30;7.43;;;;;;;;;;5044216;28;20201;-37
2022/06/23 05:51:47;;;;;;;13.90;7.83;;;;;;;;;;5054111;28;20233;-36
2022/06/23 05:54:16;;;;;;;12.50;7.57;;;;;;;;;;5054858;28;20209;-32
2022/06/23 05:56:48;;;;;;;10.63;7.23;;;;;;;;;;5050202;28;20233;-32
2022/06/23 05:59:20;;;;;;;9.57;7.10;;;;;;;;;;5048740;28;20197;-33
2022/06/23 06:01:49;;;;;;;7.23;6.20;;;;;;;;;;5054421;28;20212;-36
2022/06/23 06:04:19;;;;;;;8.48;6.50;;;;;;;;;;5052267;28;20205;-33
2022/06/23 06:06:47;;;;;;;6.45;5.60;;;;;;;;;;5053982;28;20214;-32
2022/06/23 06:12:02;;;;;;;8.90;5.45;;;;;;;;;;5043597;28;20556;-35
2022/06/23 06:14:33;;;;;;;5.10;4.60;;;;;;;;;;5044672;28;20210;-35
2022/06/23 06:19:33;;;;;;;6.43;4.03;;;;;;;;;;5026514;28;20209;-45
2022/06/23 06:22:03;;;;;;;8.07;3.90;;;;;;;;;;5031199;28;20213;-45
2022/06/23 06:24:37;;;;;;;5.25;4.20;;;;;;;;;;5031187;28;20256;-42
2022/06/23 06:27:05;;;;;;;9.07;4.28;;;;;;;;;;5028225;28;20227;-42
2022/06/23 06:29:36;;;;;;;5.15;4.15;;;;;;;;;;5027235;28;20616;-41
2022/06/23 06:32:07;;;;;;;8.40;4.00;;;;;;;;;;5028432;28;20300;-41
2022/06/23 06:34:36;;;;;;;8.55;4.00;;;;;;;;;;5024466;28;20246;-46
2022/06/23 06:37:07;;;;;;;6.38;3.92;;;;;;;;;;5031890;28;20311;-45
2022/06/23 06:39:36;;;;;;;6.85;4.50;;;;;;;;;;5030180;28;20229;-46
2022/06/23 06:42:05;;;;;;;8.00;4.00;;;;;;;;;;5030149;28;20210;-43
2022/06/23 06:44:33;;;;;;;8.88;4.38;;;;;;;;;;5031113;28;20240;-38
2022/06/23 06:47:02;;;;;;;8.07;4.00;;;;;;;;;;5030023;28;20225;-43
2022/06/23 06:49:32;;;;;;;7.00;3.78;;;;;;;;;;5022534;28;20242;-42
2022/06/23 06:52:00;;;;;;;7.32;4.30;;;;;;;;;;5030245;28;20206;-43
2022/06/23 06:54:33;;;;;;;10.18;4.00;;;;;;;;;;5031123;28;20206;-40
2022/06/23 06:57:04;;;;;;;8.15;4.40;;;;;;;;;;5029160;28;20269;-41
2022/06/23 06:59:39;;;;;;;8.48;4.45;;;;;;;;;;5026879;28;20262;-41
2022/06/23 07:02:12;;;;;;;8.35;4.05;;;;;;;;;;5028938;28;20201;-44
2022/06/23 07:04:47;;;;;;;7.18;3.90;;;;;;;;;;5020094;28;20207;-43
2022/06/23 07:07:19;;;;;;;9.15;4.40;;;;;;;;;;5031153;28;20305;-42
2022/06/23 07:09:49;;;;;;;7.70;4.57;;;;;;;;;;5028963;28;20234;-43
2022/06/23 07:12:20;;;;;;;6.55;4.15;;;;;;;;;;5020770;28;20206;-44
2022/06/23 07:14:53;;;;;;;7.32;3.83;;;;;;;;;;5029500;28;20237;-43
2022/06/23 07:17:25;;;;;;;10.07;3.85;;;;;;;;;;5026501;28;20273;-42
2022/06/23 07:19:56;;;;;;;5.00;3.83;;;;;;;;;;5025035;28;20210;-45
2022/06/23 07:22:26;;;;;;;7.35;3.40;;;;;;;;;;5030480;28;20791;-46
2022/06/23 07:24:58;;;;;;;6.18;3.53;;;;;;;;;;5030891;28;20214;-40
2022/06/23 07:27:28;;;;;;;6.90;4.05;;;;;;;;;;5021717;28;20218;-44
2022/06/23 07:29:58;;;;;;;6.00;3.45;;;;;;;;;;5021584;28;20194;-43
2022/06/23 07:32:37;;;;;;;8.48;4.07;;;;;;;;;;5026277;28;20209;-43
2022/06/23 07:35:08;;;;;;;6.90;3.90;;;;;;;;;;5022743;28;20209;-41
2022/06/23 07:37:39;;;;;;;9.10;3.72;;;;;;;;;;5030143;28;20244;-40
2022/06/23 07:40:08;;;;;;;7.03;3.38;;;;;;;;;;5028794;28;20210;-43
2022/06/23 07:42:47;;;;;;;8.30;4.00;;;;;;;;;;5021423;28;20849;-42
2022/06/23 07:45:19;;;;;;;6.05;2.95;;;;;;;;;;5030327;28;20202;-43
2022/06/23 07:47:47;;;;;;;6.47;3.30;;;;;;;;;;5027057;28;20338;-42
2022/06/23 07:50:15;;;;;;;9.50;3.58;;;;;;;;;;5030402;28;20290;-41
2022/06/23 07:52:43;;;;;;;7.72;3.17;;;;;;;;;;5030684;28;20213;-45
2022/06/23 07:55:16;;;;;;;8.30;3.85;;;;;;;;;;5029770;28;20206;-44
2022/06/23 07:57:46;;;;;;;8.95;3.13;;;;;;;;;;5023634;28;20316;-43
2022/06/23 08:00:14;;;;;;;8.52;2.90;;;;;;;;;;5030704;28;20204;-44
2022/06/23 08:02:44;;;;;;;10.77;3.78;;;;;;;;;;5026060;28;20218;-44
2022/06/23 08:05:14;;;;;;;4.70;3.42;;;;;;;;;;5022751;28;20237;-42
2022/06/23 08:07:42;;;;;;;6.13;3.03;;;;;;;;;;5031450;28;20217;-44
2022/06/23 08:10:11;;;;;;;7.95;3.22;;;;;;;;;;5027945;28;20241;-42
2022/06/23 08:12:55;;;;;;;9.25;3.60;;;;;;;;;;5027230;28;20218;-42
2022/06/23 08:18:12;;;;;;;7.40;2.95;;;;;;;;;;5028354;28;20372;-45
2022/06/23 08:20:44;;;;;;;7.75;3.20;;;;;;;;;;5034219;28;20296;-43
2022/06/23 08:23:12;;;;;;;7.55;3.10;;;;;;;;;;5034253;28;20226;-45
2022/06/23 08:25:41;;;;;;;6.47;3.10;;;;;;;;;;5029536;28;20209;-45
2022/06/23 08:28:08;;;;;;;6.80;3.00;;;;;;;;;;5027034;28;20217;-43
2022/06/23 08:30:38;;;;;;;4.20;2.83;;;;;;;;;;5033433;28;20217;-39
2022/06/23 08:33:06;;;;;;;7.43;2.83;;;;;;;;;;5031212;28;20199;-41
2022/06/23 08:35:37;;;;;;;9.43;2.83;;;;;;;;;;5029161;28;20215;-40
2022/06/23 08:38:10;;;;;;;7.30;3.22;;;;;;;;;;5034425;28;20263;-45
2022/06/23 08:40:49;;;;;;;8.18;3.47;;;;;;;;;;5035237;28;20199;-41
2022/06/23 08:43:23;;;;;;;11.50;4.07;;;;;;;;;;5026269;28;20202;-42
2022/06/23 08:45:52;;;;;;;11.07;3.10;;;;;;;;;;5026968;28;20502;-42
2022/06/23 08:48:22;;;;;;;7.38;2.97;;;;;;;;;;5027291;28;20270;-41
2022/06/23 08:50:52;;;;;;;8.07;3.08;;;;;;;;;;5032987;28;20249;-43
2022/06/23 08:53:24;;;;;;;7.47;3.25;;;;;;;;;;5034668;28;20210;-43
2022/06/23 08:55:54;;;;;;;7.97;3.10;;;;;;;;;;5031440;28;20274;-43
2022/06/23 08:58:25;;;;;;;7.47;3.45;;;;;;;;;;5020758;28;20223;-43
2022/06/23 09:00:55;;;;;;;8.65;3.33;;;;;;;;;;5032885;28;20317;-44
2022/06/23 09:03:26;;;;;;;6.78;3.10;;;;;;;;;;5025198;28;20220;-42
2022/06/23 09:05:56;;;;;;;7.55;3.35;;;;;;;;;;5028085;28;20202;-42
2022/06/23 09:08:28;;;;;;;5.68;3.10;;;;;;;;;;5032656;28;20199;-39
2022/06/23 09:10:58;;;;;;;4.80;2.85;;;;;;;;;;5033618;28;20214;-44
2022/06/23 09:13:34;;;;;;;9.55;3.70;;;;;;;;;;5026037;28;20205;-41
2022/06/23 09:16:09;;;;;;;9.88;3.40;;;;;;;;;;5032678;28;20291;-42
2022/06/23 09:18:48;;;;;;;8.73;3.08;;;;;;;;;;5022844;28;20213;-39
2022/06/23 09:21:25;;;;;;;7.05;2.72;;;;;;;;;;5028330;28;20209;-42
2022/06/23 09:24:01;;;;;;;6.13;3.17;;;;;;;;;;5031265;28;20209;-44
2022/06/23 09:26:37;;;;;;;5.80;2.70;;;;;;;;;;5032890;28;20230;-41
2022/06/23 09:29:11;;;;;;;6.53;2.67;;;;;;;;;;5025645;28;20212;-41
2022/06/23 09:31:42;;;;;;;7.43;2.92;;;;;;;;;;5031305;28;20194;-44
2022/06/23 09:34:13;;;;;;;4.55;2.80;;;;;;;;;;5022471;28;20206;-43
2022/06/23 09:36:58;;;;;;;6.20;2.63;;;;;;;;;;5031671;28;20226;-45
2022/06/23 09:39:54;;;;;;;8.25;3.28;;;;;;;;;;5032157;28;20209;-44
2022/06/23 09:42:49;;;;;;;8.25;2.80;;;;;;;;;;5025478;28;20209;-39
2022/06/23 09:45:33;;;;;;;4.35;2.20;;;;;;;;;;4992784;28;20215;-39
2022/06/23 09:48:16;;;;;;;7.70;2.40;;;;;;;;;;5014421;28;20218;-44
2022/06/23 09:50:50;;;;;;;7.93;2.90;;;;;;;;;;5025733;28;20225;-42
2022/06/23 09:53:26;;;;;;;8.23;3.20;;;;;;;;;;5031388;28;20218;-45
2022/06/23 09:56:05;;;;;;;6.55;2.53;;;;;;;;;;5031516;28;20206;-44
2022/06/23 09:58:49;;;;;;;7.53;2.60;;;;;;;;;;5022887;28;20226;-43
2022/06/23 10:01:23;;;;;;;7.10;2.70;;;;;;;;;;5031526;28;20281;-38
2022/06/23 10:03:57;;;;;;;5.72;2.78;;;;;;;;;;5028322;28;20213;-43
2022/06/23 10:06:37;;;;;;;5.63;2.78;;;;;;;;;;5031325;28;20227;-44
2022/06/23 10:09:09;;;;;;;7.82;3.17;;;;;;;;;;5031362;28;20187;-45
2022/06/23 10:11:46;;;;;;;5.90;3.00;;;;;;;;;;5018348;28;20297;-39
2022/06/23 10:14:28;;;;;;;7.13;2.67;;;;;;;;;;5025906;28;20293;-41
2022/06/23 10:17:05;;;;;;;6.78;2.85;;;;;;;;;;5027172;28;20240;-43
2022/06/23 10:19:40;;;;;;;7.95;2.80;;;;;;;;;;5019300;28;20269;-44
2022/06/23 10:22:18;;;;;;;9.40;2.50;;;;;;;;;;5030923;28;20200;-45
2022/06/23 10:24:56;;;;;;;9.50;2.65;;;;;;;;;;5030874;28;20204;-45
2022/06/23 10:27:51;;;;;;;7.72;2.65;;;;;;;;;;5022188;28;20222;-43
2022/06/23 10:30:23;;;;;;;9.27;2.85;;;;;;;;;;5025742;28;20202;-42
2022/06/23 10:32:58;;;;;;;4.63;2.50;;;;;;;;;;5025077;28;20217;-45
2022/06/23 10:35:29;;;;;;;7.70;3.00;;;;;;;;;;5026119;28;20206;-43
2022/06/23 10:38:06;;;;;;;6.35;2.80;;;;;;;;;;5023130;28;20236;-41
2022/06/23 10:40:47;;;;;;;5.53;2.50;;;;;;;;;;5031029;28;20210;-37
2022/06/23 10:43:20;;;;;;;12.07;3.00;;;;;;;;;;5016053;28;20206;-40
2022/06/23 10:45:51;;;;;;;7.97;2.67;;;;;;;;;;5021939;28;20240;-40
2022/06/23 10:48:27;;;;;;;7.18;2.60;;;;;;;;;;5024472;28;20241;-43
2022/06/23 10:50:59;;;;;;;5.35;2.53;;;;;;;;;;5029828;28;20208;-44
2022/06/23 10:53:36;;;;;;;8.98;2.70;;;;;;;;;;5030170;28;20212;-38
2022/06/23 10:56:08;;;;;;;6.75;2.33;;;;;;;;;;5024658;28;20232;-43
2022/06/23 10:58:51;;;;;;;8.60;2.65;;;;;;;;;;5027291;28;20241;-43
2022/06/23 11:01:27;;;;;;;11.40;2.50;;;;;;;;;;5030353;28;20208;-41
2022/06/23 11:04:02;;;;;;;5.97;2.58;;;;;;;;;;5018847;28;20205;-41
2022/06/23 11:06:38;;;;;;;6.53;2.33;;;;;;;;;;5026790;28;20241;-44
2022/06/23 11:09:23;;;;;;;8.18;2.83;;;;;;;;;;5010132;28;20210;-43
2022/06/23 11:12:03;;;;;;;6.38;2.40;;;;;;;;;;5012599;28;20213;-42
2022/06/23 11:14:38;;;;;;;6.32;2.58;;;;;;;;;;5028193;28;20211;-43
2022/06/23 11:17:12;;;;;;;5.88;3.10;;;;;;;;;;5027918;28;20231;-43
2022/06/23 11:19:46;;;;;;;6.85;3.00;;;;;;;;;;5027585;28;20221;-46
2022/06/23 11:22:20;;;;;;;7.75;2.83;;;;;;;;;;5029927;28;20200;-43
2022/06/23 11:24:53;;;;;;;7.68;2.67;;;;;;;;;;5029949;28;20211;-39
2022/06/23 11:27:25;;;;;;;9.20;3.08;;;;;;;;;;5020785;28;20222;-43
2022/06/23 11:29:59;;;;;;;8.73;3.13;;;;;;;;;;5020727;28;20204;-45
2022/06/23 11:32:33;;;;;;;6.97;3.10;;;;;;;;;;5023869;28;20217;-41
2022/06/23 11:35:07;;;;;;;6.50;2.78;;;;;;;;;;5017975;28;20213;-44
2022/06/23 11:37:45;;;;;;;8.07;3.03;;;;;;;;;;5029563;28;20236;-42
2022/06/23 11:40:30;;;;;;;7.28;3.00;;;;;;;;;;5029758;28;20206;-43
2022/06/23 11:43:12;;;;;;;5.68;3.03;;;;;;;;;;5020856;28;20205;-39
2022/06/23 11:45:51;;;;;;;4.63;2.65;;;;;;;;;;5023642;28;20686;-42
2022/06/23 11:48:29;;;;;;;6.78;3.75;;;;;;;;;;5024147;28;20197;-40
2022/06/23 11:50:59;;;;;;;8.88;3.35;;;;;;;;;;5026143;28;20196;-44
2022/06/23 11:53:34;;;;;;;6.30;2.88;;;;;;;;;;5030251;28;20203;-43
2022/06/23 11:56:06;;;;;;;8.25;3.47;;;;;;;;;;5030942;28;20323;-43
2022/06/23 11:58:48;;;;;;;6.43;3.95;;;;;;;;;;5026691;28;20232;-44
2022/06/23 12:01:18;;;;;;;10.43;3.47;;;;;;;;;;5025806;28;20209;-43
2022/06/23 12:04:15;;;;;;;10.73;3.78;;;;;;;;;;5021423;28;20253;-44
2022/06/23 12:06:49;;;;;;;8.18;3.80;;;;;;;;;;5028261;28;20229;-43
2022/06/23 12:09:22;;;;;;;7.95;3.45;;;;;;;;;;5029626;28;20211;-42
2022/06/23 12:11:49;;;;;;;7.30;3.55;;;;;;;;;;5023310;28;20205;-42
2022/06/23 12:14:17;;;;;;;10.38;3.85;;;;;;;;;;5028914;28;20213;-43
2022/06/23 12:16:50;;;;;;;7.35;3.75;;;;;;;;;;5127774;22;20229;-33
2022/06/23 12:19:19;;;;;;;5.70;3.38;;;;;;;;;;5044136;28;20221;-26
2022/06/23 12:21:50;;;;;;;10.73;3.88;;;;;;;;;;5050118;28;20201;-29
2022/06/23 12:24:22;;;;;;;5.85;3.88;;;;;;;;;;5049365;28;20209;-28
2022/06/23 12:26:52;;;;;;;12.35;3.55;;;;;;;;;;5055950;28;20591;-31
2022/06/23 12:29:24;;;;;;;10.30;4.15;;;;;;;;;;5050606;28;20217;-29
2022/06/23 12:31:56;;;;;;;9.35;4.53;;;;;;;;;;5069561;28;20209;-29
2022/06/23 12:34:33;;;;;;;6.93;3.60;;;;;;;;;;5055676;28;20197;-28
2022/06/23 12:37:06;;;;;;;7.50;3.92;;;;;;;;;;5059600;28;20214;-28
2022/06/23 12:39:36;;;;;;;12.10;4.43;;;;;;;;;;5049902;28;20217;-28
2022/06/23 12:42:06;;;;;;;8.90;4.45;;;;;;;;;;5046026;28;20209;-28
2022/06/23 12:44:37;;;;;;;8.88;4.00;;;;;;;;;;5047969;28;20559;-30
2022/06/23 12:47:12;;;;;;;6.97;4.18;;;;;;;;;;5067400;28;20233;-30
2022/06/23 12:49:58;;;;;;;9.68;4.32;;;;;;;;;;5048072;28;20213;-28
2022/06/23 12:52:33;;;;;;;8.48;3.60;;;;;;;;;;5058497;28;20200;-29
2022/06/23 12:55:15;;;;;;;8.73;4.20;;;;;;;;;;5071460;28;20219;-30
2022/06/23 12:57:48;;;;;;;8.98;4.28;;;;;;;;;;5053714;28;20992;-29
2022/06/23 13:00:18;;;;;;;11.68;5.05;;;;;;;;;;5058426;28;20292;-30
2022/06/23 13:02:51;;;;;;;8.98;3.85;;;;;;;;;;5053538;28;20209;-31
2022/06/23 13:05:23;;;;;;;9.88;4.03;;;;;;;;;;5057990;28;20196;-29
2022/06/23 13:07:54;;;;;;;10.20;4.80;;;;;;;;;;5064074;28;20221;-29
2022/06/23 13:10:23;;;;;;;9.18;4.28;;;;;;;;;;5055149;28;20197;-29
2022/06/23 13:12:53;;;;;;;7.80;3.83;;;;;;;;;;5052393;28;20205;-31
2022/06/23 13:15:25;;;;;;;8.90;4.03;;;;;;;;;;5056212;28;20197;-29
2022/06/23 13:17:55;;;;;;;6.32;3.92;;;;;;;;;;5049558;28;20230;-28
2022/06/23 13:20:26;;;;;;;6.88;4.15;;;;;;;;;;5059056;28;20200;-25
2022/06/23 13:22:58;;;;;;;7.75;4.00;;;;;;;;;;5065746;28;20199;-29
2022/06/23 13:25:28;;;;;;;6.03;3.15;;;;;;;;;;5073953;28;20200;-29
2022/06/23 13:27:57;;;;;;;5.93;3.10;;;;;;;;;;5050496;28;20388;-28
2022/06/23 13:30:27;;;;;;;8.50;3.30;;;;;;;;;;5062340;28;20226;-30
2022/06/23 13:33:00;;;;;;;9.90;2.65;;;;;;;;;;5064754;28;20204;-27
2022/06/23 13:35:30;;;;;;;6.32;3.08;;;;;;;;;;5062185;28;20209;-27
2022/06/23 13:37:59;;;;;;;5.80;3.20;;;;;;;;;;5062195;28;20238;-26
2022/06/23 13:40:29;;;;;;;5.93;3.75;;;;;;;;;;5054512;28;20202;-29
2022/06/23 13:43:02;;;;;;;9.00;3.47;;;;;;;;;;5045875;28;20211;-29
2022/06/23 13:45:33;;;;;;;6.38;2.97;;;;;;;;;;5066284;28;20200;-30
2022/06/23 13:48:06;;;;;;;8.32;2.90;;;;;;;;;;5063698;28;20221;-28
2022/06/23 13:50:35;;;;;;;6.15;3.08;;;;;;;;;;5058502;28;20205;-28
2022/06/23 13:53:04;;;;;;;5.25;2.45;;;;;;;;;;5061499;28;20719;-30
2022/06/23 13:55:35;;;;;;;9.10;2.58;;;;;;;;;;5053048;28;20212;-30
2022/06/23 13:58:06;;;;;;;6.72;2.63;;;;;;;;;;5049149;28;20233;-29
2022/06/23 14:00:35;;;;;;;8.02;2.78;;;;;;;;;;5060262;28;20202;-30
2022/06/23 14:03:08;;;;;;;5.72;2.28;;;;;;;;;;5052195;28;20205;-30
2022/06/23 14:05:38;;;;;;;6.40;2.42;;;;;;;;;;5062288;28;20205;-27
2022/06/23 14:08:10;;;;;;;6.68;2.50;;;;;;;;;;5059900;28;20670;-30
2022/06/23 14:10:40;;;;;;;6.60;2.38;;;;;;;;;;5048548;28;20214;-29
2022/06/23 14:13:10;;;;;;;4.85;2.25;;;;;;;;;;5056896;28;20202;-28
2022/06/23 14:15:43;;;;;;;6.65;2.50;;;;;;;;;;5052300;28;20201;-27
2022/06/23 14:18:13;;;;;;;5.05;2.17;;;;;;;;;;5052687;28;20213;-29
2022/06/23 14:20:42;;;;;;;9.02;3.08;;;;;;;;;;5060136;28;20296;-28
2022/06/23 14:23:16;;;;;;;5.50;2.40;;;;;;;;;;5054248;28;20297;-28
2022/06/23 14:25:45;;;;;;;5.53;2.03;;;;;;;;;;5050572;28;20210;-30
2022/06/23 14:28:17;;;;;;;8.63;3.00;;;;;;;;;;5053260;28;20197;-30
2022/06/23 14:30:48;;;;;;;5.43;2.53;;;;;;;;;;5061603;28;20664;-30
2022/06/23 14:33:19;;;;;;;7.32;2.30;;;;;;;;;;5049003;28;20205;-31
2022/06/23 14:35:49;;;;;;;7.28;2.13;;;;;;;;;;5047606;28;20206;-28
2022/06/23 14:38:20;;;;;;;7.25;2.63;;;;;;;;;;5053651;28;20221;-27
2022/06/23 14:40:51;;;;;;;4.85;2.53;;;;;;;;;;5048773;28;20213;-30
2022/06/23 14:43:33;;;;;;;5.32;2.42;;;;;;;;;;5054200;28;20194;-28
2022/06/23 14:46:05;;;;;;;5.97;2.10;;;;;;;;;;5064775;28;20231;-30
2022/06/23 14:48:40;;;;;;;7.68;2.50;;;;;;;;;;5054726;28;20195;-28
2022/06/23 14:51:09;;;;;;;7.13;2.30;;;;;;;;;;5064482;28;20202;-27
2022/06/23 14:53:39;;;;;;;6.20;3.03;;;;;;;;;;5053114;28;20213;-30
2022/06/23 14:56:11;;;;;;;5.22;2.40;;;;;;;;;;5049075;28;20218;-32
2022/06/23 14:58:44;;;;;;;8.45;2.90;;;;;;;;;;5047055;28;20223;-29
2022/06/23 15:01:15;;;;;;;4.07;2.05;;;;;;;;;;5061797;28;20694;-30
2022/06/23 15:03:47;;;;;;;5.25;2.42;;;;;;;;;;5046012;28;20202;-33
2022/06/23 15:06:18;;;;;;;5.80;1.85;;;;;;;;;;5050116;28;20268;-28
2022/06/23 15:08:48;;;;;;;7.53;2.85;;;;;;;;;;5050993;28;20198;-30
2022/06/23 15:11:16;;;;;;;7.65;1.85;;;;;;;;;;5048315;28;20252;-26
2022/06/23 15:13:46;;;;;;;3.97;1.85;;;;;;;;;;5036681;28;20213;-29
2022/06/23 15:16:16;;;;;;;6.63;2.40;;;;;;;;;;5058851;28;20236;-28
2022/06/23 15:18:49;;;;;;;6.00;2.20;;;;;;;;;;5044384;28;20230;-30
2022/06/23 15:24:08;;;;;;;5.95;2.30;;;;;;;;;;5032680;28;20260;-30
2022/06/23 15:26:38;;;;;;;7.88;2.30;;;;;;;;;;5039598;28;20226;-28